sensor_id;sensor_type;location;lat;lon;timestamp;P1;durP1;ratioP1;P2;durP2;ratioP2
71253;SDS011;59019;47.638;18.966;2023-10-09T00:01:03;3.40;;;0.93;;
71253;SDS011;59019;47.638;18.966;2023-10-09T00:03:41;3.13;;;0.90;;
71253;SDS011;59019;47.638;18.966;2023-10-09T00:06:08;3.15;;;0.90;;
71253;SDS011;59019;47.638;18.966;2023-10-09T00:08:37;4.00;;;1.10;;
71253;SDS011;59019;47.638;18.966;2023-10-09T00:11:04;3.08;;;0.80;;
71253;SDS011;59019;47.638;18.966;2023-10-09T00:13:42;3.20;;;1.00;;
71253;SDS011;59019;47.638;18.966;2023-10-09T00:16:17;3.33;;;0.90;;
71253;SDS011;59019;47.638;18.966;2023-10-09T00:19:03;2.83;;;0.80;;
71253;SDS011;59019;47.638;18.966;2023-10-09T00:21:43;3.67;;;1.20;;
71253;SDS011;59019;47.638;18.966;2023-10-09T00:24:12;4.10;;;1.10;;
71253;SDS011;59019;47.638;18.966;2023-10-09T00:26:44;3.63;;;1.10;;
71253;SDS011;59019;47.638;18.966;2023-10-09T00:29:14;5.32;;;1.00;;
71253;SDS011;59019;47.638;18.966;2023-10-09T00:31:46;3.83;;;1.00;;
71253;SDS011;59019;47.638;18.966;2023-10-09T00:34:42;4.75;;;1.00;;
71253;SDS011;59019;47.638;18.966;2023-10-09T00:37:08;3.63;;;0.93;;
71253;SDS011;59019;47.638;18.966;2023-10-09T00:39:48;4.28;;;1.02;;
71253;SDS011;59019;47.638;18.966;2023-10-09T00:42:20;3.42;;;0.98;;
71253;SDS011;59019;47.638;18.966;2023-10-09T00:44:53;3.58;;;0.90;;
71253;SDS011;59019;47.638;18.966;2023-10-09T00:47:19;2.95;;;0.80;;
71253;SDS011;59019;47.638;18.966;2023-10-09T00:49:55;3.80;;;1.00;;
71253;SDS011;59019;47.638;18.966;2023-10-09T00:52:35;3.13;;;0.90;;
71253;SDS011;59019;47.638;18.966;2023-10-09T00:55:10;4.05;;;1.15;;
71253;SDS011;59019;47.638;18.966;2023-10-09T00:57:43;3.88;;;0.90;;
71253;SDS011;59019;47.638;18.966;2023-10-09T01:00:36;3.80;;;0.90;;
71253;SDS011;59019;47.638;18.966;2023-10-09T01:03:15;3.50;;;0.90;;
71253;SDS011;59019;47.638;18.966;2023-10-09T01:05:41;4.15;;;1.10;;
71253;SDS011;59019;47.638;18.966;2023-10-09T01:08:16;3.35;;;1.00;;
71253;SDS011;59019;47.638;18.966;2023-10-09T01:10:56;3.03;;;0.90;;
71253;SDS011;59019;47.638;18.966;2023-10-09T01:13:24;4.18;;;1.00;;
71253;SDS011;59019;47.638;18.966;2023-10-09T01:16:08;3.47;;;0.90;;
71253;SDS011;59019;47.638;18.966;2023-10-09T01:21:10;3.30;;;1.00;;
71253;SDS011;59019;47.638;18.966;2023-10-09T01:23:46;4.63;;;0.90;;
71253;SDS011;59019;47.638;18.966;2023-10-09T01:26:31;3.25;;;0.80;;
71253;SDS011;59019;47.638;18.966;2023-10-09T01:29:05;3.08;;;0.80;;
71253;SDS011;59019;47.638;18.966;2023-10-09T01:31:39;3.33;;;0.90;;
71253;SDS011;59019;47.638;18.966;2023-10-09T01:34:26;3.50;;;0.90;;
71253;SDS011;59019;47.638;18.966;2023-10-09T01:37:20;3.27;;;1.07;;
71253;SDS011;59019;47.638;18.966;2023-10-09T01:39:57;3.58;;;0.80;;
71253;SDS011;59019;47.638;18.966;2023-10-09T01:42:24;3.63;;;0.90;;
71253;SDS011;59019;47.638;18.966;2023-10-09T01:44:59;3.85;;;1.00;;
71253;SDS011;59019;47.638;18.966;2023-10-09T01:47:47;3.85;;;1.10;;
71253;SDS011;59019;47.638;18.966;2023-10-09T01:50:17;3.10;;;0.80;;
71253;SDS011;59019;47.638;18.966;2023-10-09T01:53:00;3.50;;;0.98;;
71253;SDS011;59019;47.638;18.966;2023-10-09T01:55:31;4.00;;;1.00;;
71253;SDS011;59019;47.638;18.966;2023-10-09T01:58:00;4.78;;;1.00;;
71253;SDS011;59019;47.638;18.966;2023-10-09T02:00:31;3.22;;;0.90;;
71253;SDS011;59019;47.638;18.966;2023-10-09T02:03:00;4.28;;;1.20;;
71253;SDS011;59019;47.638;18.966;2023-10-09T02:05:30;3.70;;;1.00;;
71253;SDS011;59019;47.638;18.966;2023-10-09T02:07:59;3.90;;;1.10;;
71253;SDS011;59019;47.638;18.966;2023-10-09T02:10:27;3.80;;;1.10;;
71253;SDS011;59019;47.638;18.966;2023-10-09T02:12:53;3.77;;;0.87;;
71253;SDS011;59019;47.638;18.966;2023-10-09T02:15:23;4.30;;;0.90;;
71253;SDS011;59019;47.638;18.966;2023-10-09T02:18:13;4.40;;;1.05;;
71253;SDS011;59019;47.638;18.966;2023-10-09T02:23:30;3.20;;;0.90;;
71253;SDS011;59019;47.638;18.966;2023-10-09T02:26:03;3.92;;;0.98;;
71253;SDS011;59019;47.638;18.966;2023-10-09T02:28:31;3.47;;;0.98;;
71253;SDS011;59019;47.638;18.966;2023-10-09T02:31:09;3.95;;;0.98;;
71253;SDS011;59019;47.638;18.966;2023-10-09T02:33:36;4.03;;;1.10;;
71253;SDS011;59019;47.638;18.966;2023-10-09T02:36:04;3.70;;;1.10;;
71253;SDS011;59019;47.638;18.966;2023-10-09T02:38:33;3.28;;;0.90;;
71253;SDS011;59019;47.638;18.966;2023-10-09T02:41:02;4.57;;;1.00;;
71253;SDS011;59019;47.638;18.966;2023-10-09T02:43:31;3.30;;;0.93;;
71253;SDS011;59019;47.638;18.966;2023-10-09T02:46:14;3.83;;;1.00;;
71253;SDS011;59019;47.638;18.966;2023-10-09T02:48:45;3.60;;;1.00;;
71253;SDS011;59019;47.638;18.966;2023-10-09T02:51:16;5.30;;;1.10;;
71253;SDS011;59019;47.638;18.966;2023-10-09T02:54:01;4.13;;;1.10;;
71253;SDS011;59019;47.638;18.966;2023-10-09T02:56:46;3.33;;;1.00;;
71253;SDS011;59019;47.638;18.966;2023-10-09T02:59:19;4.63;;;1.10;;
71253;SDS011;59019;47.638;18.966;2023-10-09T03:01:47;4.32;;;1.10;;
71253;SDS011;59019;47.638;18.966;2023-10-09T03:04:13;5.80;;;1.50;;
71253;SDS011;59019;47.638;18.966;2023-10-09T03:06:40;4.20;;;1.30;;
71253;SDS011;59019;47.638;18.966;2023-10-09T03:09:19;5.68;;;1.73;;
71253;SDS011;59019;47.638;18.966;2023-10-09T03:11:53;5.00;;;1.50;;
71253;SDS011;59019;47.638;18.966;2023-10-09T03:14:21;4.88;;;1.60;;
71253;SDS011;59019;47.638;18.966;2023-10-09T03:16:50;5.37;;;1.80;;
71253;SDS011;59019;47.638;18.966;2023-10-09T03:19:15;4.40;;;1.83;;
71253;SDS011;59019;47.638;18.966;2023-10-09T03:21:42;4.90;;;2.00;;
71253;SDS011;59019;47.638;18.966;2023-10-09T03:24:07;4.85;;;2.22;;
71253;SDS011;59019;47.638;18.966;2023-10-09T03:26:33;5.80;;;2.30;;
71253;SDS011;59019;47.638;18.966;2023-10-09T03:28:59;5.50;;;2.00;;
71253;SDS011;59019;47.638;18.966;2023-10-09T03:31:32;4.15;;;1.40;;
71253;SDS011;59019;47.638;18.966;2023-10-09T03:33:58;5.13;;;1.77;;
71253;SDS011;59019;47.638;18.966;2023-10-09T03:36:24;4.70;;;1.50;;
71253;SDS011;59019;47.638;18.966;2023-10-09T03:38:54;4.50;;;1.60;;
71253;SDS011;59019;47.638;18.966;2023-10-09T03:41:22;4.72;;;1.63;;
71253;SDS011;59019;47.638;18.966;2023-10-09T03:43:51;4.88;;;1.60;;
71253;SDS011;59019;47.638;18.966;2023-10-09T03:46:17;5.10;;;1.88;;
71253;SDS011;59019;47.638;18.966;2023-10-09T03:48:47;5.00;;;1.70;;
71253;SDS011;59019;47.638;18.966;2023-10-09T03:51:14;4.57;;;1.80;;
71253;SDS011;59019;47.638;18.966;2023-10-09T03:54:00;4.15;;;1.38;;
71253;SDS011;59019;47.638;18.966;2023-10-09T03:56:31;4.60;;;1.40;;
71253;SDS011;59019;47.638;18.966;2023-10-09T03:58:57;5.47;;;1.40;;
71253;SDS011;59019;47.638;18.966;2023-10-09T04:01:23;4.18;;;1.30;;
71253;SDS011;59019;47.638;18.966;2023-10-09T04:03:55;4.22;;;1.23;;
71253;SDS011;59019;47.638;18.966;2023-10-09T04:06:25;4.82;;;1.40;;
71253;SDS011;59019;47.638;18.966;2023-10-09T04:09:00;4.00;;;1.20;;
71253;SDS011;59019;47.638;18.966;2023-10-09T04:11:44;4.47;;;1.30;;
71253;SDS011;59019;47.638;18.966;2023-10-09T04:14:15;4.00;;;1.30;;
71253;SDS011;59019;47.638;18.966;2023-10-09T04:17:10;3.80;;;1.30;;
71253;SDS011;59019;47.638;18.966;2023-10-09T04:20:05;4.13;;;1.33;;
71253;SDS011;59019;47.638;18.966;2023-10-09T04:23:02;4.15;;;1.20;;
71253;SDS011;59019;47.638;18.966;2023-10-09T04:25:34;4.72;;;1.23;;
71253;SDS011;59019;47.638;18.966;2023-10-09T04:28:10;4.18;;;1.30;;
71253;SDS011;59019;47.638;18.966;2023-10-09T04:30:47;5.82;;;1.40;;
71253;SDS011;59019;47.638;18.966;2023-10-09T04:33:18;4.43;;;1.30;;
71253;SDS011;59019;47.638;18.966;2023-10-09T04:36:06;4.53;;;1.38;;
71253;SDS011;59019;47.638;18.966;2023-10-09T04:38:52;4.47;;;1.25;;
71253;SDS011;59019;47.638;18.966;2023-10-09T04:41:27;3.85;;;1.42;;
71253;SDS011;59019;47.638;18.966;2023-10-09T04:43:53;8.03;;;3.20;;
71253;SDS011;59019;47.638;18.966;2023-10-09T04:46:39;5.37;;;1.70;;
71253;SDS011;59019;47.638;18.966;2023-10-09T04:49:09;5.63;;;1.52;;
71253;SDS011;59019;47.638;18.966;2023-10-09T04:51:54;6.07;;;2.23;;
71253;SDS011;59019;47.638;18.966;2023-10-09T04:54:33;6.37;;;1.93;;
71253;SDS011;59019;47.638;18.966;2023-10-09T04:57:04;6.63;;;2.72;;
71253;SDS011;59019;47.638;18.966;2023-10-09T04:59:42;5.80;;;2.08;;
71253;SDS011;59019;47.638;18.966;2023-10-09T05:02:12;6.00;;;2.15;;
71253;SDS011;59019;47.638;18.966;2023-10-09T05:04:44;5.68;;;2.35;;
71253;SDS011;59019;47.638;18.966;2023-10-09T05:07:12;4.95;;;1.80;;
71253;SDS011;59019;47.638;18.966;2023-10-09T05:10:07;6.10;;;1.58;;
71253;SDS011;59019;47.638;18.966;2023-10-09T05:12:43;5.55;;;1.80;;
71253;SDS011;59019;47.638;18.966;2023-10-09T05:15:21;4.50;;;1.40;;
71253;SDS011;59019;47.638;18.966;2023-10-09T05:17:52;4.10;;;1.23;;
71253;SDS011;59019;47.638;18.966;2023-10-09T05:20:22;4.90;;;1.30;;
71253;SDS011;59019;47.638;18.966;2023-10-09T05:22:48;3.95;;;1.20;;
71253;SDS011;59019;47.638;18.966;2023-10-09T05:25:25;3.90;;;1.17;;
71253;SDS011;59019;47.638;18.966;2023-10-09T05:28:09;4.90;;;1.23;;
71253;SDS011;59019;47.638;18.966;2023-10-09T05:30:51;4.20;;;1.15;;
71253;SDS011;59019;47.638;18.966;2023-10-09T05:33:41;4.10;;;1.20;;
71253;SDS011;59019;47.638;18.966;2023-10-09T05:36:10;4.55;;;1.23;;
71253;SDS011;59019;47.638;18.966;2023-10-09T05:38:51;5.38;;;1.42;;
71253;SDS011;59019;47.638;18.966;2023-10-09T05:41:43;3.75;;;1.30;;
71253;SDS011;59019;47.638;18.966;2023-10-09T05:44:22;4.28;;;1.27;;
71253;SDS011;59019;47.638;18.966;2023-10-09T05:47:06;4.53;;;1.33;;
71253;SDS011;59019;47.638;18.966;2023-10-09T05:49:50;4.23;;;1.37;;
71253;SDS011;59019;47.638;18.966;2023-10-09T05:52:34;4.35;;;1.42;;
71253;SDS011;59019;47.638;18.966;2023-10-09T05:55:03;5.38;;;1.50;;
71253;SDS011;59019;47.638;18.966;2023-10-09T05:57:44;4.73;;;1.50;;
71253;SDS011;59019;47.638;18.966;2023-10-09T06:00:28;4.68;;;1.38;;
71253;SDS011;59019;47.638;18.966;2023-10-09T06:03:12;4.05;;;1.30;;
71253;SDS011;59019;47.638;18.966;2023-10-09T06:05:47;5.03;;;1.38;;
71253;SDS011;59019;47.638;18.966;2023-10-09T06:08:27;4.47;;;1.10;;
71253;SDS011;59019;47.638;18.966;2023-10-09T06:11:06;3.72;;;1.17;;
71253;SDS011;59019;47.638;18.966;2023-10-09T06:13:56;4.90;;;1.20;;
71253;SDS011;59019;47.638;18.966;2023-10-09T06:16:35;4.35;;;1.10;;
71253;SDS011;59019;47.638;18.966;2023-10-09T06:19:10;4.32;;;1.20;;
71253;SDS011;59019;47.638;18.966;2023-10-09T06:21:55;4.45;;;1.17;;
71253;SDS011;59019;47.638;18.966;2023-10-09T06:24:38;4.55;;;1.23;;
71253;SDS011;59019;47.638;18.966;2023-10-09T06:27:10;5.40;;;1.25;;
71253;SDS011;59019;47.638;18.966;2023-10-09T06:29:37;5.32;;;1.10;;
71253;SDS011;59019;47.638;18.966;2023-10-09T06:32:11;4.53;;;1.17;;
71253;SDS011;59019;47.638;18.966;2023-10-09T06:34:58;4.22;;;1.10;;
71253;SDS011;59019;47.638;18.966;2023-10-09T06:37:47;3.93;;;1.13;;
71253;SDS011;59019;47.638;18.966;2023-10-09T06:40:26;4.63;;;1.20;;
71253;SDS011;59019;47.638;18.966;2023-10-09T06:43:02;5.57;;;1.20;;
71253;SDS011;59019;47.638;18.966;2023-10-09T06:45:35;5.75;;;1.10;;
71253;SDS011;59019;47.638;18.966;2023-10-09T06:48:13;4.00;;;1.05;;
71253;SDS011;59019;47.638;18.966;2023-10-09T06:50:57;5.32;;;1.17;;
71253;SDS011;59019;47.638;18.966;2023-10-09T06:53:30;5.05;;;1.20;;
71253;SDS011;59019;47.638;18.966;2023-10-09T06:56:14;6.88;;;1.23;;
71253;SDS011;59019;47.638;18.966;2023-10-09T06:59:08;5.27;;;1.13;;
71253;SDS011;59019;47.638;18.966;2023-10-09T07:01:50;4.38;;;1.10;;
71253;SDS011;59019;47.638;18.966;2023-10-09T07:04:36;4.28;;;1.20;;
71253;SDS011;59019;47.638;18.966;2023-10-09T07:07:03;4.30;;;1.10;;
71253;SDS011;59019;47.638;18.966;2023-10-09T07:09:46;4.70;;;1.10;;
71253;SDS011;59019;47.638;18.966;2023-10-09T07:12:33;4.38;;;1.25;;
71253;SDS011;59019;47.638;18.966;2023-10-09T07:15:02;4.03;;;1.10;;
71253;SDS011;59019;47.638;18.966;2023-10-09T07:17:49;5.40;;;1.00;;
71253;SDS011;59019;47.638;18.966;2023-10-09T07:20:17;3.75;;;1.10;;
71253;SDS011;59019;47.638;18.966;2023-10-09T07:23:02;4.20;;;0.90;;
71253;SDS011;59019;47.638;18.966;2023-10-09T07:25:46;5.70;;;1.15;;
71253;SDS011;59019;47.638;18.966;2023-10-09T07:28:23;3.45;;;1.00;;
71253;SDS011;59019;47.638;18.966;2023-10-09T07:31:16;3.95;;;1.00;;
71253;SDS011;59019;47.638;18.966;2023-10-09T07:33:49;3.90;;;0.82;;
71253;SDS011;59019;47.638;18.966;2023-10-09T07:36:21;3.80;;;0.80;;
71253;SDS011;59019;47.638;18.966;2023-10-09T07:39:00;5.68;;;1.00;;
71253;SDS011;59019;47.638;18.966;2023-10-09T07:41:30;5.28;;;0.90;;
71253;SDS011;59019;47.638;18.966;2023-10-09T07:43:56;3.88;;;1.00;;
71253;SDS011;59019;47.638;18.966;2023-10-09T07:46:22;4.20;;;0.90;;
71253;SDS011;59019;47.638;18.966;2023-10-09T07:48:58;3.42;;;0.80;;
71253;SDS011;59019;47.638;18.966;2023-10-09T07:51:35;3.90;;;0.80;;
71253;SDS011;59019;47.638;18.966;2023-10-09T07:54:08;3.70;;;0.93;;
71253;SDS011;59019;47.638;18.966;2023-10-09T07:56:40;4.00;;;0.90;;
71253;SDS011;59019;47.638;18.966;2023-10-09T07:59:12;3.78;;;1.08;;
71253;SDS011;59019;47.638;18.966;2023-10-09T08:01:42;4.07;;;0.90;;
71253;SDS011;59019;47.638;18.966;2023-10-09T08:04:18;3.88;;;0.90;;
71253;SDS011;59019;47.638;18.966;2023-10-09T08:07:02;4.32;;;1.00;;
71253;SDS011;59019;47.638;18.966;2023-10-09T08:09:53;4.07;;;1.05;;
71253;SDS011;59019;47.638;18.966;2023-10-09T08:12:37;4.25;;;0.90;;
71253;SDS011;59019;47.638;18.966;2023-10-09T08:15:09;3.55;;;0.90;;
71253;SDS011;59019;47.638;18.966;2023-10-09T08:17:56;3.60;;;0.80;;
71253;SDS011;59019;47.638;18.966;2023-10-09T08:20:28;3.60;;;1.00;;
71253;SDS011;59019;47.638;18.966;2023-10-09T08:23:13;4.82;;;1.10;;
71253;SDS011;59019;47.638;18.966;2023-10-09T08:25:58;4.25;;;1.02;;
71253;SDS011;59019;47.638;18.966;2023-10-09T08:28:37;4.50;;;0.90;;
71253;SDS011;59019;47.638;18.966;2023-10-09T08:31:13;4.03;;;0.90;;
71253;SDS011;59019;47.638;18.966;2023-10-09T08:33:59;3.40;;;1.00;;
71253;SDS011;59019;47.638;18.966;2023-10-09T08:36:26;3.47;;;0.93;;
71253;SDS011;59019;47.638;18.966;2023-10-09T08:38:56;5.38;;;1.00;;
71253;SDS011;59019;47.638;18.966;2023-10-09T08:41:23;3.20;;;0.90;;
71253;SDS011;59019;47.638;18.966;2023-10-09T08:43:55;4.80;;;0.90;;
71253;SDS011;59019;47.638;18.966;2023-10-09T08:46:26;4.20;;;1.00;;
71253;SDS011;59019;47.638;18.966;2023-10-09T08:48:56;5.22;;;1.10;;
71253;SDS011;59019;47.638;18.966;2023-10-09T08:51:24;5.75;;;1.10;;
71253;SDS011;59019;47.638;18.966;2023-10-09T08:53:53;4.20;;;1.00;;
71253;SDS011;59019;47.638;18.966;2023-10-09T08:56:20;5.03;;;1.10;;
71253;SDS011;59019;47.638;18.966;2023-10-09T09:01:16;4.40;;;1.10;;
71253;SDS011;59019;47.638;18.966;2023-10-09T09:03:46;3.47;;;1.10;;
71253;SDS011;59019;47.638;18.966;2023-10-09T09:06:13;3.90;;;1.00;;
71253;SDS011;59019;47.638;18.966;2023-10-09T09:08:39;4.90;;;1.08;;
71253;SDS011;59019;47.638;18.966;2023-10-09T09:11:15;5.18;;;1.20;;
71253;SDS011;59019;47.638;18.966;2023-10-09T09:13:59;6.03;;;1.10;;
71253;SDS011;59019;47.638;18.966;2023-10-09T09:16:43;5.50;;;1.00;;
71253;SDS011;59019;47.638;18.966;2023-10-09T09:19:13;4.60;;;1.23;;
71253;SDS011;59019;47.638;18.966;2023-10-09T09:21:52;4.13;;;1.00;;
71253;SDS011;59019;47.638;18.966;2023-10-09T09:24:24;5.15;;;1.70;;
71253;SDS011;59019;47.638;18.966;2023-10-09T09:26:50;5.13;;;1.17;;
71253;SDS011;59019;47.638;18.966;2023-10-09T09:32:02;4.18;;;1.08;;
71253;SDS011;59019;47.638;18.966;2023-10-09T09:34:45;5.20;;;1.25;;
71253;SDS011;59019;47.638;18.966;2023-10-09T09:37:20;6.45;;;1.10;;
71253;SDS011;59019;47.638;18.966;2023-10-09T09:39:47;5.70;;;1.40;;
71253;SDS011;59019;47.638;18.966;2023-10-09T09:42:17;4.70;;;1.50;;
71253;SDS011;59019;47.638;18.966;2023-10-09T09:44:49;5.15;;;1.30;;
71253;SDS011;59019;47.638;18.966;2023-10-09T09:47:17;5.03;;;1.23;;
71253;SDS011;59019;47.638;18.966;2023-10-09T09:50:04;5.47;;;1.27;;
71253;SDS011;59019;47.638;18.966;2023-10-09T09:52:49;5.47;;;1.13;;
71253;SDS011;59019;47.638;18.966;2023-10-09T09:55:18;4.20;;;1.03;;
71253;SDS011;59019;47.638;18.966;2023-10-09T09:57:48;4.97;;;1.13;;
71253;SDS011;59019;47.638;18.966;2023-10-09T10:00:21;5.13;;;1.80;;
71253;SDS011;59019;47.638;18.966;2023-10-09T10:03:07;4.60;;;1.20;;
71253;SDS011;59019;47.638;18.966;2023-10-09T10:05:37;7.30;;;1.20;;
71253;SDS011;59019;47.638;18.966;2023-10-09T10:08:07;4.38;;;1.10;;
71253;SDS011;59019;47.638;18.966;2023-10-09T10:10:38;4.80;;;1.30;;
71253;SDS011;59019;47.638;18.966;2023-10-09T10:13:13;6.45;;;1.20;;
71253;SDS011;59019;47.638;18.966;2023-10-09T10:18:23;4.88;;;1.13;;
71253;SDS011;59019;47.638;18.966;2023-10-09T10:23:40;4.50;;;1.20;;
71253;SDS011;59019;47.638;18.966;2023-10-09T10:26:18;7.03;;;1.30;;
71253;SDS011;59019;47.638;18.966;2023-10-09T10:31:51;4.55;;;1.00;;
71253;SDS011;59019;47.638;18.966;2023-10-09T10:34:25;5.20;;;1.30;;
71253;SDS011;59019;47.638;18.966;2023-10-09T10:36:51;4.80;;;1.40;;
71253;SDS011;59019;47.638;18.966;2023-10-09T10:39:23;6.20;;;1.10;;
71253;SDS011;59019;47.638;18.966;2023-10-09T10:42:10;5.13;;;1.20;;
71253;SDS011;59019;47.638;18.966;2023-10-09T10:44:59;5.55;;;1.25;;
71253;SDS011;59019;47.638;18.966;2023-10-09T10:47:27;5.13;;;1.40;;
71253;SDS011;59019;47.638;18.966;2023-10-09T10:49:59;4.68;;;1.20;;
71253;SDS011;59019;47.638;18.966;2023-10-09T10:52:46;4.55;;;1.20;;
71253;SDS011;59019;47.638;18.966;2023-10-09T10:55:22;5.65;;;1.20;;
71253;SDS011;59019;47.638;18.966;2023-10-09T10:57:50;5.35;;;2.10;;
71253;SDS011;59019;47.638;18.966;2023-10-09T11:00:21;6.25;;;1.67;;
71253;SDS011;59019;47.638;18.966;2023-10-09T11:03:05;5.38;;;1.35;;
71253;SDS011;59019;47.638;18.966;2023-10-09T11:05:43;4.90;;;1.30;;
71253;SDS011;59019;47.638;18.966;2023-10-09T11:08:15;8.05;;;2.40;;
71253;SDS011;59019;47.638;18.966;2023-10-09T11:10:47;5.10;;;1.23;;
71253;SDS011;59019;47.638;18.966;2023-10-09T11:13:25;5.38;;;1.17;;
71253;SDS011;59019;47.638;18.966;2023-10-09T11:16:04;6.10;;;2.17;;
71253;SDS011;59019;47.638;18.966;2023-10-09T11:18:54;6.85;;;1.60;;
71253;SDS011;59019;47.638;18.966;2023-10-09T11:21:22;4.70;;;1.10;;
71253;SDS011;59019;47.638;18.966;2023-10-09T11:23:55;5.55;;;1.23;;
71253;SDS011;59019;47.638;18.966;2023-10-09T11:26:45;3.95;;;1.02;;
71253;SDS011;59019;47.638;18.966;2023-10-09T11:29:18;4.32;;;1.20;;
71253;SDS011;59019;47.638;18.966;2023-10-09T11:32:04;5.05;;;1.25;;
71253;SDS011;59019;47.638;18.966;2023-10-09T11:34:30;11.07;;;4.78;;
71253;SDS011;59019;47.638;18.966;2023-10-09T11:37:19;6.63;;;2.13;;
71253;SDS011;59019;47.638;18.966;2023-10-09T11:39:53;7.50;;;2.67;;
71253;SDS011;59019;47.638;18.966;2023-10-09T11:42:20;7.60;;;2.22;;
71253;SDS011;59019;47.638;18.966;2023-10-09T11:45:06;6.05;;;2.20;;
71253;SDS011;59019;47.638;18.966;2023-10-09T11:47:53;15.80;;;7.18;;
71253;SDS011;59019;47.638;18.966;2023-10-09T11:50:39;5.55;;;1.90;;
71253;SDS011;59019;47.638;18.966;2023-10-09T11:53:08;7.45;;;1.50;;
71253;SDS011;59019;47.638;18.966;2023-10-09T11:55:48;4.82;;;1.58;;
71253;SDS011;59019;47.638;18.966;2023-10-09T11:58:15;9.88;;;3.78;;
71253;SDS011;59019;47.638;18.966;2023-10-09T12:00:54;8.30;;;3.30;;
71253;SDS011;59019;47.638;18.966;2023-10-09T12:03:30;5.75;;;1.70;;
71253;SDS011;59019;47.638;18.966;2023-10-09T12:05:57;5.90;;;1.40;;
71253;SDS011;59019;47.638;18.966;2023-10-09T12:08:32;8.35;;;2.30;;
71253;SDS011;59019;47.638;18.966;2023-10-09T12:10:59;21.75;;;9.05;;
71253;SDS011;59019;47.638;18.966;2023-10-09T12:13:28;12.10;;;4.10;;
71253;SDS011;59019;47.638;18.966;2023-10-09T12:15:54;11.63;;;3.90;;
71253;SDS011;59019;47.638;18.966;2023-10-09T12:18:20;5.43;;;1.67;;
71253;SDS011;59019;47.638;18.966;2023-10-09T12:20:47;5.38;;;1.40;;
71253;SDS011;59019;47.638;18.966;2023-10-09T12:23:19;5.18;;;1.38;;
71253;SDS011;59019;47.638;18.966;2023-10-09T12:25:47;6.53;;;1.97;;
71253;SDS011;59019;47.638;18.966;2023-10-09T12:28:14;5.37;;;1.43;;
71253;SDS011;59019;47.638;18.966;2023-10-09T12:30:40;6.13;;;2.00;;
71253;SDS011;59019;47.638;18.966;2023-10-09T12:33:07;5.38;;;1.40;;
71253;SDS011;59019;47.638;18.966;2023-10-09T12:35:37;7.10;;;2.20;;
71253;SDS011;59019;47.638;18.966;2023-10-09T12:38:05;6.88;;;2.22;;
71253;SDS011;59019;47.638;18.966;2023-10-09T12:40:35;5.35;;;1.40;;
71253;SDS011;59019;47.638;18.966;2023-10-09T12:43:01;5.47;;;1.63;;
71253;SDS011;59019;47.638;18.966;2023-10-09T12:45:27;8.93;;;3.13;;
71253;SDS011;59019;47.638;18.966;2023-10-09T12:47:54;17.63;;;8.15;;
71253;SDS011;59019;47.638;18.966;2023-10-09T12:50:24;19.75;;;9.90;;
71253;SDS011;59019;47.638;18.966;2023-10-09T12:52:54;11.18;;;5.28;;
71253;SDS011;59019;47.638;18.966;2023-10-09T12:55:20;8.90;;;4.00;;
71253;SDS011;59019;47.638;18.966;2023-10-09T12:57:47;8.13;;;3.67;;
71253;SDS011;59019;47.638;18.966;2023-10-09T13:00:13;5.45;;;1.90;;
71253;SDS011;59019;47.638;18.966;2023-10-09T13:02:50;7.00;;;2.10;;
71253;SDS011;59019;47.638;18.966;2023-10-09T13:05:16;6.32;;;2.03;;
71253;SDS011;59019;47.638;18.966;2023-10-09T13:07:51;5.70;;;1.90;;
71253;SDS011;59019;47.638;18.966;2023-10-09T13:10:18;6.05;;;1.88;;
71253;SDS011;59019;47.638;18.966;2023-10-09T13:12:44;5.20;;;1.50;;
71253;SDS011;59019;47.638;18.966;2023-10-09T13:15:10;6.60;;;1.63;;
71253;SDS011;59019;47.638;18.966;2023-10-09T13:17:36;6.50;;;1.60;;
71253;SDS011;59019;47.638;18.966;2023-10-09T13:20:03;5.75;;;1.70;;
71253;SDS011;59019;47.638;18.966;2023-10-09T13:22:39;5.38;;;1.90;;
71253;SDS011;59019;47.638;18.966;2023-10-09T13:25:10;6.85;;;1.90;;
71253;SDS011;59019;47.638;18.966;2023-10-09T13:27:44;6.25;;;2.20;;
71253;SDS011;59019;47.638;18.966;2023-10-09T13:30:17;23.08;;;14.07;;
71253;SDS011;59019;47.638;18.966;2023-10-09T13:32:49;31.83;;;19.77;;
71253;SDS011;59019;47.638;18.966;2023-10-09T13:35:18;24.45;;;14.45;;
71253;SDS011;59019;47.638;18.966;2023-10-09T13:37:45;15.15;;;7.95;;
71253;SDS011;59019;47.638;18.966;2023-10-09T13:40:22;10.57;;;4.00;;
71253;SDS011;59019;47.638;18.966;2023-10-09T13:42:54;8.27;;;3.15;;
71253;SDS011;59019;47.638;18.966;2023-10-09T13:45:26;10.38;;;2.92;;
71253;SDS011;59019;47.638;18.966;2023-10-09T13:47:58;5.90;;;2.35;;
71253;SDS011;59019;47.638;18.966;2023-10-09T13:50:27;6.67;;;2.50;;
71253;SDS011;59019;47.638;18.966;2023-10-09T13:52:57;5.70;;;2.30;;
71253;SDS011;59019;47.638;18.966;2023-10-09T13:55:23;7.68;;;2.10;;
71253;SDS011;59019;47.638;18.966;2023-10-09T13:57:56;7.78;;;2.17;;
71253;SDS011;59019;47.638;18.966;2023-10-09T14:00:22;5.00;;;1.92;;
71253;SDS011;59019;47.638;18.966;2023-10-09T14:03:07;6.90;;;1.90;;
71253;SDS011;59019;47.638;18.966;2023-10-09T14:05:44;7.00;;;2.10;;
71253;SDS011;59019;47.638;18.966;2023-10-09T14:08:20;5.07;;;1.80;;
71253;SDS011;59019;47.638;18.966;2023-10-09T14:10:48;6.32;;;2.30;;
71253;SDS011;59019;47.638;18.966;2023-10-09T14:13:16;6.88;;;2.50;;
71253;SDS011;59019;47.638;18.966;2023-10-09T14:15:43;6.60;;;2.47;;
71253;SDS011;59019;47.638;18.966;2023-10-09T14:18:11;6.27;;;1.90;;
71253;SDS011;59019;47.638;18.966;2023-10-09T14:20:37;6.10;;;2.63;;
71253;SDS011;59019;47.638;18.966;2023-10-09T14:23:03;6.20;;;2.40;;
71253;SDS011;59019;47.638;18.966;2023-10-09T14:25:32;7.97;;;2.67;;
71253;SDS011;59019;47.638;18.966;2023-10-09T14:28:03;7.82;;;2.53;;
71253;SDS011;59019;47.638;18.966;2023-10-09T14:30:32;5.93;;;2.30;;
71253;SDS011;59019;47.638;18.966;2023-10-09T14:33:07;7.25;;;2.00;;
71253;SDS011;59019;47.638;18.966;2023-10-09T14:35:37;6.55;;;2.13;;
71253;SDS011;59019;47.638;18.966;2023-10-09T14:38:05;5.63;;;2.03;;
71253;SDS011;59019;47.638;18.966;2023-10-09T14:40:41;5.30;;;2.05;;
71253;SDS011;59019;47.638;18.966;2023-10-09T14:43:07;4.90;;;2.08;;
71253;SDS011;59019;47.638;18.966;2023-10-09T14:45:44;7.40;;;2.40;;
71253;SDS011;59019;47.638;18.966;2023-10-09T14:48:13;5.65;;;2.20;;
71253;SDS011;59019;47.638;18.966;2023-10-09T14:50:51;6.90;;;2.90;;
71253;SDS011;59019;47.638;18.966;2023-10-09T14:53:29;10.13;;;5.90;;
71253;SDS011;59019;47.638;18.966;2023-10-09T14:55:58;9.10;;;4.38;;
71253;SDS011;59019;47.638;18.966;2023-10-09T14:58:28;11.85;;;6.47;;
71253;SDS011;59019;47.638;18.966;2023-10-09T15:00:55;13.25;;;7.70;;
71253;SDS011;59019;47.638;18.966;2023-10-09T15:03:21;26.67;;;18.55;;
71253;SDS011;59019;47.638;18.966;2023-10-09T15:05:48;15.02;;;10.07;;
71253;SDS011;59019;47.638;18.966;2023-10-09T15:08:14;13.33;;;7.53;;
71253;SDS011;59019;47.638;18.966;2023-10-09T15:10:51;9.32;;;5.18;;
71253;SDS011;59019;47.638;18.966;2023-10-09T15:13:20;8.98;;;5.20;;
71253;SDS011;59019;47.638;18.966;2023-10-09T15:15:52;7.20;;;3.25;;
71253;SDS011;59019;47.638;18.966;2023-10-09T15:18:19;7.57;;;4.03;;
71253;SDS011;59019;47.638;18.966;2023-10-09T15:20:46;9.07;;;5.00;;
71253;SDS011;59019;47.638;18.966;2023-10-09T15:23:12;9.45;;;5.00;;
71253;SDS011;59019;47.638;18.966;2023-10-09T15:25:38;9.33;;;4.53;;
71253;SDS011;59019;47.638;18.966;2023-10-09T15:28:07;8.50;;;3.60;;
71253;SDS011;59019;47.638;18.966;2023-10-09T15:30:40;8.60;;;3.97;;
71253;SDS011;59019;47.638;18.966;2023-10-09T15:33:07;13.57;;;8.95;;